sensor_id;sensor_type;location;lat;lon;timestamp;temperature;humidity
29207;DHT22;16247;50.840;4.382;2023-04-19T00:00:58;12.00;99.90
29207;DHT22;16247;50.840;4.382;2023-04-19T00:03:27;12.10;99.90
29207;DHT22;16247;50.840;4.382;2023-04-19T00:05:54;12.00;99.90
29207;DHT22;16247;50.840;4.382;2023-04-19T00:08:23;12.00;99.90
29207;DHT22;16247;50.840;4.382;2023-04-19T00:10:51;11.90;99.90
29207;DHT22;16247;50.840;4.382;2023-04-19T00:13:16;11.80;99.90
29207;DHT22;16247;50.840;4.382;2023-04-19T00:15:46;11.90;99.90
29207;DHT22;16247;50.840;4.382;2023-04-19T00:18:13;11.90;99.90
29207;DHT22;16247;50.840;4.382;2023-04-19T00:20:39;11.90;99.90
29207;DHT22;16247;50.840;4.382;2023-04-19T00:23:04;12.00;99.90
29207;DHT22;16247;50.840;4.382;2023-04-19T00:25:30;11.90;99.90
29207;DHT22;16247;50.840;4.382;2023-04-19T00:27:58;11.90;99.90
29207;DHT22;16247;50.840;4.382;2023-04-19T00:30:23;11.90;99.90
29207;DHT22;16247;50.840;4.382;2023-04-19T00:32:50;11.80;99.90
29207;DHT22;16247;50.840;4.382;2023-04-19T00:35:16;11.80;99.90
29207;DHT22;16247;50.840;4.382;2023-04-19T00:37:41;11.80;99.90
29207;DHT22;16247;50.840;4.382;2023-04-19T00:40:09;11.80;99.90
29207;DHT22;16247;50.840;4.382;2023-04-19T00:42:34;11.80;99.90
29207;DHT22;16247;50.840;4.382;2023-04-19T00:45:00;11.80;99.90
29207;DHT22;16247;50.840;4.382;2023-04-19T00:47:26;11.80;99.90
29207;DHT22;16247;50.840;4.382;2023-04-19T00:49:51;11.80;99.90
29207;DHT22;16247;50.840;4.382;2023-04-19T00:52:17;11.80;99.90
29207;DHT22;16247;50.840;4.382;2023-04-19T00:54:45;11.80;99.90
29207;DHT22;16247;50.840;4.382;2023-04-19T00:57:10;11.80;99.90
29207;DHT22;16247;50.840;4.382;2023-04-19T00:59:36;11.80;99.90
29207;DHT22;16247;50.840;4.382;2023-04-19T01:02:03;11.80;99.90
29207;DHT22;16247;50.840;4.382;2023-04-19T01:04:29;11.80;99.90
29207;DHT22;16247;50.840;4.382;2023-04-19T01:06:55;11.70;99.90
29207;DHT22;16247;50.840;4.382;2023-04-19T01:09:20;11.70;99.90
29207;DHT22;16247;50.840;4.382;2023-04-19T01:11:46;11.60;99.90
29207;DHT22;16247;50.840;4.382;2023-04-19T01:14:11;11.50;99.90
29207;DHT22;16247;50.840;4.382;2023-04-19T01:16:37;11.50;99.90
29207;DHT22;16247;50.840;4.382;2023-04-19T01:19:06;11.50;99.90
29207;DHT22;16247;50.840;4.382;2023-04-19T01:21:32;11.50;99.90
29207;DHT22;16247;50.840;4.382;2023-04-19T01:23:57;11.40;99.90
29207;DHT22;16247;50.840;4.382;2023-04-19T01:26:23;11.60;99.90
29207;DHT22;16247;50.840;4.382;2023-04-19T01:28:48;11.40;99.90
29207;DHT22;16247;50.840;4.382;2023-04-19T01:31:14;11.30;99.90
29207;DHT22;16247;50.840;4.382;2023-04-19T01:33:40;11.30;99.90
29207;DHT22;16247;50.840;4.382;2023-04-19T01:36:05;11.40;99.90
29207;DHT22;16247;50.840;4.382;2023-04-19T01:38:31;11.30;99.90
29207;DHT22;16247;50.840;4.382;2023-04-19T01:40:56;11.20;99.90
29207;DHT22;16247;50.840;4.382;2023-04-19T01:43:22;11.20;99.90
29207;DHT22;16247;50.840;4.382;2023-04-19T01:45:48;11.10;99.90
29207;DHT22;16247;50.840;4.382;2023-04-19T01:48:17;11.10;99.90
29207;DHT22;16247;50.840;4.382;2023-04-19T01:50:43;11.10;99.90
29207;DHT22;16247;50.840;4.382;2023-04-19T01:53:08;11.10;99.90
29207;DHT22;16247;50.840;4.382;2023-04-19T01:55:34;11.00;99.90
29207;DHT22;16247;50.840;4.382;2023-04-19T01:57:59;11.20;99.90
29207;DHT22;16247;50.840;4.382;2023-04-19T02:00:25;11.30;99.90
29207;DHT22;16247;50.840;4.382;2023-04-19T02:02:51;11.30;99.90
29207;DHT22;16247;50.840;4.382;2023-04-19T02:05:16;11.20;99.90
29207;DHT22;16247;50.840;4.382;2023-04-19T02:07:42;11.20;99.90
29207;DHT22;16247;50.840;4.382;2023-04-19T02:10:12;11.20;99.90
29207;DHT22;16247;50.840;4.382;2023-04-19T02:12:37;11.30;99.90
29207;DHT22;16247;50.840;4.382;2023-04-19T02:15:03;11.30;99.90
29207;DHT22;16247;50.840;4.382;2023-04-19T02:17:35;11.30;99.90
29207;DHT22;16247;50.840;4.382;2023-04-19T02:20:03;11.30;99.90
29207;DHT22;16247;50.840;4.382;2023-04-19T02:22:29;11.30;99.90
29207;DHT22;16247;50.840;4.382;2023-04-19T02:24:54;11.40;99.90
29207;DHT22;16247;50.840;4.382;2023-04-19T02:27:21;11.30;99.90
29207;DHT22;16247;50.840;4.382;2023-04-19T02:29:47;11.40;99.90
29207;DHT22;16247;50.840;4.382;2023-04-19T02:32:13;11.50;99.90
29207;DHT22;16247;50.840;4.382;2023-04-19T02:34:40;11.50;99.90
29207;DHT22;16247;50.840;4.382;2023-04-19T02:37:06;11.50;99.90
29207;DHT22;16247;50.840;4.382;2023-04-19T02:39:32;11.40;99.90
29207;DHT22;16247;50.840;4.382;2023-04-19T02:41:58;11.30;99.90
29207;DHT22;16247;50.840;4.382;2023-04-19T02:49:58;11.50;99.90
29207;DHT22;16247;50.840;4.382;2023-04-19T02:55:08;11.60;99.90
29207;DHT22;16247;50.840;4.382;2023-04-19T02:57:35;11.60;99.90
29207;DHT22;16247;50.840;4.382;2023-04-19T03:00:01;11.70;99.90
29207;DHT22;16247;50.840;4.382;2023-04-19T03:02:29;11.70;99.90
29207;DHT22;16247;50.840;4.382;2023-04-19T03:04:55;11.60;99.90
29207;DHT22;16247;50.840;4.382;2023-04-19T03:07:21;11.60;99.90
29207;DHT22;16247;50.840;4.382;2023-04-19T03:09:47;11.60;99.90
29207;DHT22;16247;50.840;4.382;2023-04-19T03:12:13;11.60;99.90
29207;DHT22;16247;50.840;4.382;2023-04-19T03:14:38;11.70;99.90
29207;DHT22;16247;50.840;4.382;2023-04-19T03:17:08;11.80;99.90
29207;DHT22;16247;50.840;4.382;2023-04-19T03:19:34;11.80;99.90
29207;DHT22;16247;50.840;4.382;2023-04-19T03:21:59;11.90;99.90
29207;DHT22;16247;50.840;4.382;2023-04-19T03:24:32;12.20;99.90
29207;DHT22;16247;50.840;4.382;2023-04-19T03:26:58;11.90;99.90
29207;DHT22;16247;50.840;4.382;2023-04-19T03:29:24;12.00;99.90
29207;DHT22;16247;50.840;4.382;2023-04-19T03:31:51;12.00;99.90
29207;DHT22;16247;50.840;4.382;2023-04-19T03:34:16;12.00;99.90
29207;DHT22;16247;50.840;4.382;2023-04-19T03:36:43;12.00;99.90
29207;DHT22;16247;50.840;4.382;2023-04-19T03:39:08;12.00;99.90
29207;DHT22;16247;50.840;4.382;2023-04-19T03:41:34;12.00;99.90
29207;DHT22;16247;50.840;4.382;2023-04-19T03:44:00;11.90;99.90
29207;DHT22;16247;50.840;4.382;2023-04-19T03:46:26;11.90;99.90
29207;DHT22;16247;50.840;4.382;2023-04-19T03:48:57;11.90;99.90
29207;DHT22;16247;50.840;4.382;2023-04-19T03:51:23;11.80;99.90
29207;DHT22;16247;50.840;4.382;2023-04-19T03:53:48;11.80;99.90
29207;DHT22;16247;50.840;4.382;2023-04-19T03:56:14;11.70;99.90
29207;DHT22;16247;50.840;4.382;2023-04-19T03:58:40;11.70;99.90
29207;DHT22;16247;50.840;4.382;2023-04-19T04:01:06;11.60;99.90
29207;DHT22;16247;50.840;4.382;2023-04-19T04:03:33;11.60;99.90
29207;DHT22;16247;50.840;4.382;2023-04-19T04:05:59;11.70;99.90
29207;DHT22;16247;50.840;4.382;2023-04-19T04:08:24;11.70;99.90
29207;DHT22;16247;50.840;4.382;2023-04-19T04:10:53;11.60;99.90
29207;DHT22;16247;50.840;4.382;2023-04-19T04:13:18;11.60;99.90
29207;DHT22;16247;50.840;4.382;2023-04-19T04:15:47;11.50;99.90
29207;DHT22;16247;50.840;4.382;2023-04-19T04:18:14;11.50;99.90
29207;DHT22;16247;50.840;4.382;2023-04-19T04:20:42;11.60;99.90
29207;DHT22;16247;50.840;4.382;2023-04-19T04:23:08;11.70;99.90
29207;DHT22;16247;50.840;4.382;2023-04-19T04:25:38;11.60;99.90
29207;DHT22;16247;50.840;4.382;2023-04-19T04:28:03;11.60;99.90
29207;DHT22;16247;50.840;4.382;2023-04-19T04:30:31;11.50;99.90
29207;DHT22;16247;50.840;4.382;2023-04-19T04:32:58;11.50;99.90
29207;DHT22;16247;50.840;4.382;2023-04-19T04:35:24;11.70;99.90
29207;DHT22;16247;50.840;4.382;2023-04-19T04:37:50;11.50;99.90
29207;DHT22;16247;50.840;4.382;2023-04-19T04:40:21;11.50;99.90
29207;DHT22;16247;50.840;4.382;2023-04-19T04:42:50;11.60;99.90
29207;DHT22;16247;50.840;4.382;2023-04-19T04:45:22;11.60;99.90
29207;DHT22;16247;50.840;4.382;2023-04-19T04:53:10;11.40;99.90
29207;DHT22;16247;50.840;4.382;2023-04-19T04:55:36;11.50;99.90
29207;DHT22;16247;50.840;4.382;2023-04-19T04:58:06;11.50;99.90
29207;DHT22;16247;50.840;4.382;2023-04-19T05:00:31;11.50;99.90
29207;DHT22;16247;50.840;4.382;2023-04-19T05:02:57;11.50;99.90
29207;DHT22;16247;50.840;4.382;2023-04-19T05:05:23;11.50;99.90
29207;DHT22;16247;50.840;4.382;2023-04-19T05:07:49;11.40;99.90
29207;DHT22;16247;50.840;4.382;2023-04-19T05:10:14;11.40;99.90
29207;DHT22;16247;50.840;4.382;2023-04-19T05:12:41;11.50;99.90
29207;DHT22;16247;50.840;4.382;2023-04-19T05:15:07;11.60;99.90
29207;DHT22;16247;50.840;4.382;2023-04-19T05:17:32;11.60;99.90
29207;DHT22;16247;50.840;4.382;2023-04-19T05:19:58;11.40;99.90
29207;DHT22;16247;50.840;4.382;2023-04-19T05:22:24;11.60;99.90
29207;DHT22;16247;50.840;4.382;2023-04-19T05:24:57;11.50;99.90
29207;DHT22;16247;50.840;4.382;2023-04-19T05:27:28;11.50;99.90
29207;DHT22;16247;50.840;4.382;2023-04-19T05:30:09;11.60;99.90
29207;DHT22;16247;50.840;4.382;2023-04-19T05:32:34;11.50;99.90
29207;DHT22;16247;50.840;4.382;2023-04-19T05:35:01;11.50;99.90
29207;DHT22;16247;50.840;4.382;2023-04-19T05:37:27;11.60;99.90
29207;DHT22;16247;50.840;4.382;2023-04-19T05:39:52;11.70;99.90
29207;DHT22;16247;50.840;4.382;2023-04-19T05:45:21;11.60;99.90
29207;DHT22;16247;50.840;4.382;2023-04-19T06:14:09;11.80;99.90
29207;DHT22;16247;50.840;4.382;2023-04-19T06:16:35;11.80;99.90
29207;DHT22;16247;50.840;4.382;2023-04-19T06:19:01;11.80;99.90
29207;DHT22;16247;50.840;4.382;2023-04-19T06:21:32;11.90;99.90
29207;DHT22;16247;50.840;4.382;2023-04-19T06:24:04;12.00;99.90
29207;DHT22;16247;50.840;4.382;2023-04-19T06:26:33;11.90;99.90
29207;DHT22;16247;50.840;4.382;2023-04-19T06:29:00;12.00;99.90
29207;DHT22;16247;50.840;4.382;2023-04-19T06:31:26;12.10;99.90
29207;DHT22;16247;50.840;4.382;2023-04-19T06:33:52;12.10;99.90
29207;DHT22;16247;50.840;4.382;2023-04-19T06:36:20;12.30;99.90
29207;DHT22;16247;50.840;4.382;2023-04-19T06:38:46;12.40;99.90
29207;DHT22;16247;50.840;4.382;2023-04-19T06:41:13;12.40;99.90
29207;DHT22;16247;50.840;4.382;2023-04-19T06:43:38;12.30;99.90
29207;DHT22;16247;50.840;4.382;2023-04-19T06:46:05;12.30;99.90
29207;DHT22;16247;50.840;4.382;2023-04-19T06:48:30;12.50;99.90
29207;DHT22;16247;50.840;4.382;2023-04-19T06:50:57;12.60;99.90
29207;DHT22;16247;50.840;4.382;2023-04-19T06:56:00;12.70;99.90
29207;DHT22;16247;50.840;4.382;2023-04-19T06:58:26;12.70;99.90
29207;DHT22;16247;50.840;4.382;2023-04-19T07:00:52;12.70;99.90
29207;DHT22;16247;50.840;4.382;2023-04-19T07:03:18;12.90;99.90
29207;DHT22;16247;50.840;4.382;2023-04-19T07:05:53;13.00;99.90
29207;DHT22;16247;50.840;4.382;2023-04-19T07:08:20;13.10;99.90
29207;DHT22;16247;50.840;4.382;2023-04-19T07:10:46;13.20;99.90
29207;DHT22;16247;50.840;4.382;2023-04-19T07:13:22;13.40;99.90
29207;DHT22;16247;50.840;4.382;2023-04-19T07:16:09;13.20;99.90
29207;DHT22;16247;50.840;4.382;2023-04-19T07:18:41;13.50;99.90
29207;DHT22;16247;50.840;4.382;2023-04-19T07:21:09;13.60;99.90
29207;DHT22;16247;50.840;4.382;2023-04-19T07:23:34;13.60;99.90
29207;DHT22;16247;50.840;4.382;2023-04-19T07:26:00;13.70;99.90
29207;DHT22;16247;50.840;4.382;2023-04-19T07:28:29;13.70;99.90
29207;DHT22;16247;50.840;4.382;2023-04-19T07:30:55;13.70;99.90
29207;DHT22;16247;50.840;4.382;2023-04-19T07:33:21;13.80;99.90
29207;DHT22;16247;50.840;4.382;2023-04-19T07:35:47;13.80;99.90
29207;DHT22;16247;50.840;4.382;2023-04-19T07:38:15;13.90;99.90
29207;DHT22;16247;50.840;4.382;2023-04-19T07:40:41;14.00;99.90
29207;DHT22;16247;50.840;4.382;2023-04-19T07:43:07;14.00;99.90
29207;DHT22;16247;50.840;4.382;2023-04-19T07:45:34;14.00;99.90
29207;DHT22;16247;50.840;4.382;2023-04-19T07:47:59;14.00;99.90
29207;DHT22;16247;50.840;4.382;2023-04-19T07:50:25;14.00;99.90
29207;DHT22;16247;50.840;4.382;2023-04-19T07:52:51;14.10;99.90
29207;DHT22;16247;50.840;4.382;2023-04-19T07:55:17;14.30;99.90
29207;DHT22;16247;50.840;4.382;2023-04-19T07:57:43;14.40;99.90
29207;DHT22;16247;50.840;4.382;2023-04-19T08:00:13;14.40;99.90
29207;DHT22;16247;50.840;4.382;2023-04-19T08:02:43;14.40;99.90
29207;DHT22;16247;50.840;4.382;2023-04-19T08:05:09;14.30;99.90
29207;DHT22;16247;50.840;4.382;2023-04-19T08:07:36;14.40;99.90
29207;DHT22;16247;50.840;4.382;2023-04-19T08:10:01;14.30;99.90
29207;DHT22;16247;50.840;4.382;2023-04-19T08:12:27;14.40;99.90
29207;DHT22;16247;50.840;4.382;2023-04-19T08:14:53;14.40;99.90
29207;DHT22;16247;50.840;4.382;2023-04-19T08:17:29;14.60;99.90
29207;DHT22;16247;50.840;4.382;2023-04-19T08:19:54;14.70;99.90
29207;DHT22;16247;50.840;4.382;2023-04-19T08:22:21;14.80;99.90
29207;DHT22;16247;50.840;4.382;2023-04-19T08:24:50;14.90;99.90
29207;DHT22;16247;50.840;4.382;2023-04-19T08:27:16;15.00;99.90
29207;DHT22;16247;50.840;4.382;2023-04-19T08:29:43;15.10;99.90
29207;DHT22;16247;50.840;4.382;2023-04-19T08:32:10;15.20;99.90
29207;DHT22;16247;50.840;4.382;2023-04-19T08:34:38;15.30;99.90
29207;DHT22;16247;50.840;4.382;2023-04-19T08:37:03;15.30;99.90
29207;DHT22;16247;50.840;4.382;2023-04-19T08:39:29;15.40;99.90
29207;DHT22;16247;50.840;4.382;2023-04-19T08:41:55;15.60;99.90
29207;DHT22;16247;50.840;4.382;2023-04-19T08:44:23;15.60;99.90
29207;DHT22;16247;50.840;4.382;2023-04-19T08:46:50;15.70;99.90
29207;DHT22;16247;50.840;4.382;2023-04-19T08:49:16;15.80;99.90
29207;DHT22;16247;50.840;4.382;2023-04-19T08:51:47;15.90;99.90
29207;DHT22;16247;50.840;4.382;2023-04-19T08:54:15;15.80;99.90
29207;DHT22;16247;50.840;4.382;2023-04-19T08:56:41;15.70;99.90
29207;DHT22;16247;50.840;4.382;2023-04-19T08:59:06;15.80;99.90
29207;DHT22;16247;50.840;4.382;2023-04-19T09:01:32;15.80;99.90
29207;DHT22;16247;50.840;4.382;2023-04-19T09:13:10;16.20;99.90
29207;DHT22;16247;50.840;4.382;2023-04-19T09:15:39;16.20;99.90
29207;DHT22;16247;50.840;4.382;2023-04-19T09:18:06;16.30;99.90
29207;DHT22;16247;50.840;4.382;2023-04-19T09:20:40;16.30;99.90
29207;DHT22;16247;50.840;4.382;2023-04-19T09:23:07;16.30;99.90
29207;DHT22;16247;50.840;4.382;2023-04-19T09:25:33;16.30;99.90
29207;DHT22;16247;50.840;4.382;2023-04-19T09:28:12;16.60;99.90
29207;DHT22;16247;50.840;4.382;2023-04-19T09:30:40;16.60;99.90
29207;DHT22;16247;50.840;4.382;2023-04-19T09:33:05;16.60;99.90
29207;DHT22;16247;50.840;4.382;2023-04-19T09:35:38;16.60;99.90
29207;DHT22;16247;50.840;4.382;2023-04-19T09:38:05;16.70;99.90
29207;DHT22;16247;50.840;4.382;2023-04-19T09:40:32;16.90;99.90
29207;DHT22;16247;50.840;4.382;2023-04-19T09:42:57;17.00;99.90
29207;DHT22;16247;50.840;4.382;2023-04-19T09:45:25;17.00;99.90
29207;DHT22;16247;50.840;4.382;2023-04-19T09:48:01;17.00;99.90
29207;DHT22;16247;50.840;4.382;2023-04-19T09:50:27;16.90;99.90
29207;DHT22;16247;50.840;4.382;2023-04-19T09:52:53;17.00;99.90
29207;DHT22;16247;50.840;4.382;2023-04-19T09:55:22;16.80;99.90
29207;DHT22;16247;50.840;4.382;2023-04-19T09:57:50;16.80;99.90
29207;DHT22;16247;50.840;4.382;2023-04-19T10:00:17;16.80;99.90
29207;DHT22;16247;50.840;4.382;2023-04-19T10:02:42;17.00;99.90
29207;DHT22;16247;50.840;4.382;2023-04-19T10:05:09;16.90;99.90
29207;DHT22;16247;50.840;4.382;2023-04-19T10:07:36;17.00;99.90
29207;DHT22;16247;50.840;4.382;2023-04-19T10:12:37;17.10;99.90
29207;DHT22;16247;50.840;4.382;2023-04-19T10:15:03;16.80;99.90
29207;DHT22;16247;50.840;4.382;2023-04-19T10:17:30;16.90;99.90
29207;DHT22;16247;50.840;4.382;2023-04-19T10:20:00;16.80;99.90
29207;DHT22;16247;50.840;4.382;2023-04-19T10:22:35;16.90;99.90
29207;DHT22;16247;50.840;4.382;2023-04-19T10:25:11;16.80;99.90
29207;DHT22;16247;50.840;4.382;2023-04-19T10:27:56;17.00;99.90
29207;DHT22;16247;50.840;4.382;2023-04-19T10:30:24;17.10;99.90
29207;DHT22;16247;50.840;4.382;2023-04-19T10:32:54;17.20;99.90
29207;DHT22;16247;50.840;4.382;2023-04-19T10:35:22;17.20;99.90
29207;DHT22;16247;50.840;4.382;2023-04-19T10:38:04;17.20;99.90
29207;DHT22;16247;50.840;4.382;2023-04-19T10:45:46;17.30;99.90
29207;DHT22;16247;50.840;4.382;2023-04-19T10:51:13;17.40;99.90
29207;DHT22;16247;50.840;4.382;2023-04-19T10:56:14;17.50;99.90
29207;DHT22;16247;50.840;4.382;2023-04-19T11:04:09;17.40;99.90
29207;DHT22;16247;50.840;4.382;2023-04-19T11:09:23;17.90;99.90
29207;DHT22;16247;50.840;4.382;2023-04-19T11:11:53;17.90;99.90
29207;DHT22;16247;50.840;4.382;2023-04-19T11:14:19;18.00;99.90
29207;DHT22;16247;50.840;4.382;2023-04-19T11:16:47;18.00;99.90
29207;DHT22;16247;50.840;4.382;2023-04-19T11:19:15;18.00;99.90
29207;DHT22;16247;50.840;4.382;2023-04-19T11:21:44;17.90;99.90
29207;DHT22;16247;50.840;4.382;2023-04-19T11:24:11;17.80;99.90
29207;DHT22;16247;50.840;4.382;2023-04-19T11:26:38;18.00;99.90
29207;DHT22;16247;50.840;4.382;2023-04-19T11:29:06;18.00;99.90
29207;DHT22;16247;50.840;4.382;2023-04-19T11:31:32;18.20;99.90
29207;DHT22;16247;50.840;4.382;2023-04-19T11:33:58;18.20;99.90
29207;DHT22;16247;50.840;4.382;2023-04-19T11:36:31;18.20;99.90
29207;DHT22;16247;50.840;4.382;2023-04-19T11:38:58;18.10;99.90
29207;DHT22;16247;50.840;4.382;2023-04-19T11:41:23;18.10;99.90
29207;DHT22;16247;50.840;4.382;2023-04-19T11:43:49;18.20;99.90
29207;DHT22;16247;50.840;4.382;2023-04-19T11:46:30;18.20;99.90
29207;DHT22;16247;50.840;4.382;2023-04-19T11:48:57;18.20;99.90
29207;DHT22;16247;50.840;4.382;2023-04-19T11:51:34;18.30;99.90
29207;DHT22;16247;50.840;4.382;2023-04-19T11:54:11;18.60;99.90
29207;DHT22;16247;50.840;4.382;2023-04-19T11:59:26;18.40;99.90
29207;DHT22;16247;50.840;4.382;2023-04-19T12:02:06;18.50;99.90
29207;DHT22;16247;50.840;4.382;2023-04-19T12:07:06;18.70;99.90
29207;DHT22;16247;50.840;4.382;2023-04-19T12:09:32;18.80;99.90
29207;DHT22;16247;50.840;4.382;2023-04-19T12:11:58;18.80;99.90
29207;DHT22;16247;50.840;4.382;2023-04-19T12:14:23;18.70;99.90
29207;DHT22;16247;50.840;4.382;2023-04-19T12:17:09;18.70;99.90
29207;DHT22;16247;50.840;4.382;2023-04-19T12:19:44;18.60;99.90
29207;DHT22;16247;50.840;4.382;2023-04-19T12:28:09;18.70;99.90
29207;DHT22;16247;50.840;4.382;2023-04-19T12:33:37;18.60;99.90
29207;DHT22;16247;50.840;4.382;2023-04-19T12:36:05;18.70;99.90
29207;DHT22;16247;50.840;4.382;2023-04-19T12:38:31;18.60;99.90
29207;DHT22;16247;50.840;4.382;2023-04-19T12:40:58;18.70;99.90
29207;DHT22;16247;50.840;4.382;2023-04-19T12:43:26;18.80;99.90
29207;DHT22;16247;50.840;4.382;2023-04-19T12:45:58;19.00;99.90
29207;DHT22;16247;50.840;4.382;2023-04-19T12:48:24;18.90;99.90
29207;DHT22;16247;50.840;4.382;2023-04-19T12:50:53;19.00;99.90
29207;DHT22;16247;50.840;4.382;2023-04-19T12:56:08;19.10;99.90
29207;DHT22;16247;50.840;4.382;2023-04-19T12:58:47;19.00;99.90
29207;DHT22;16247;50.840;4.382;2023-04-19T13:01:13;19.10;99.90
29207;DHT22;16247;50.840;4.382;2023-04-19T13:03:39;19.20;99.90
29207;DHT22;16247;50.840;4.382;2023-04-19T13:06:07;19.00;99.90
29207;DHT22;16247;50.840;4.382;2023-04-19T13:08:38;19.00;99.90
29207;DHT22;16247;50.840;4.382;2023-04-19T13:11:04;19.10;99.90
29207;DHT22;16247;50.840;4.382;2023-04-19T13:13:30;19.10;99.90
29207;DHT22;16247;50.840;4.382;2023-04-19T13:25:03;19.10;99.90
29207;DHT22;16247;50.840;4.382;2023-04-19T13:27:32;19.10;99.90
29207;DHT22;16247;50.840;4.382;2023-04-19T13:29:58;19.10;99.90
29207;DHT22;16247;50.840;4.382;2023-04-19T13:32:25;19.10;99.90
29207;DHT22;16247;50.840;4.382;2023-04-19T13:34:51;18.90;99.90
29207;DHT22;16247;50.840;4.382;2023-04-19T13:37:18;18.90;99.90
29207;DHT22;16247;50.840;4.382;2023-04-19T13:39:45;19.00;99.90
29207;DHT22;16247;50.840;4.382;2023-04-19T13:42:27;19.10;99.90
29207;DHT22;16247;50.840;4.382;2023-04-19T13:44:53;19.10;99.90
29207;DHT22;16247;50.840;4.382;2023-04-19T13:47:19;19.00;98.80
29207;DHT22;16247;50.840;4.382;2023-04-19T13:49:45;19.00;98.80
29207;DHT22;16247;50.840;4.382;2023-04-19T13:52:19;18.80;98.90
29207;DHT22;16247;50.840;4.382;2023-04-19T13:54:57;18.70;98.50
29207;DHT22;16247;50.840;4.382;2023-04-19T13:57:24;18.70;98.80
29207;DHT22;16247;50.840;4.382;2023-04-19T13:59:50;18.90;98.50
29207;DHT22;16247;50.840;4.382;2023-04-19T14:02:22;18.80;97.20
29207;DHT22;16247;50.840;4.382;2023-04-19T14:04:48;18.80;96.50
29207;DHT22;16247;50.840;4.382;2023-04-19T14:07:14;18.90;95.60
29207;DHT22;16247;50.840;4.382;2023-04-19T14:09:40;18.80;95.70
29207;DHT22;16247;50.840;4.382;2023-04-19T14:12:08;18.90;95.10
29207;DHT22;16247;50.840;4.382;2023-04-19T14:14:34;18.90;94.60
29207;DHT22;16247;50.840;4.382;2023-04-19T14:17:03;18.90;94.10
29207;DHT22;16247;50.840;4.382;2023-04-19T14:19:38;18.90;93.20
29207;DHT22;16247;50.840;4.382;2023-04-19T14:22:07;18.90;92.50
29207;DHT22;16247;50.840;4.382;2023-04-19T14:24:36;18.80;91.00
29207;DHT22;16247;50.840;4.382;2023-04-19T14:27:07;18.70;90.90
29207;DHT22;16247;50.840;4.382;2023-04-19T14:29:33;18.70;90.40
29207;DHT22;16247;50.840;4.382;2023-04-19T14:31:59;18.80;90.40
29207;DHT22;16247;50.840;4.382;2023-04-19T14:34:28;18.80;89.80
29207;DHT22;16247;50.840;4.382;2023-04-19T14:36:53;18.80;89.10
29207;DHT22;16247;50.840;4.382;2023-04-19T14:39:26;18.70;88.40
29207;DHT22;16247;50.840;4.382;2023-04-19T14:41:52;18.50;88.70
29207;DHT22;16247;50.840;4.382;2023-04-19T14:44:21;18.50;89.60
29207;DHT22;16247;50.840;4.382;2023-04-19T14:46:47;18.40;89.20
29207;DHT22;16247;50.840;4.382;2023-04-19T14:49:14;18.40;87.90
29207;DHT22;16247;50.840;4.382;2023-04-19T14:51:46;18.50;88.20
29207;DHT22;16247;50.840;4.382;2023-04-19T14:54:31;18.40;88.70
29207;DHT22;16247;50.840;4.382;2023-04-19T14:56:57;18.40;94.40
29207;DHT22;16247;50.840;4.382;2023-04-19T14:59:22;18.30;99.90
29207;DHT22;16247;50.840;4.382;2023-04-19T15:01:48;18.60;97.40
29207;DHT22;16247;50.840;4.382;2023-04-19T15:04:13;18.70;98.00
29207;DHT22;16247;50.840;4.382;2023-04-19T15:06:39;18.70;95.40
29207;DHT22;16247;50.840;4.382;2023-04-19T15:09:05;18.70;94.00
29207;DHT22;16247;50.840;4.382;2023-04-19T15:11:32;18.70;93.80
29207;DHT22;16247;50.840;4.382;2023-04-19T15:13:59;18.70;92.10
29207;DHT22;16247;50.840;4.382;2023-04-19T15:16:25;18.70;93.20
29207;DHT22;16247;50.840;4.382;2023-04-19T15:18:51;18.80;94.70
29207;DHT22;16247;50.840;4.382;2023-04-19T15:21:20;18.90;93.00
29207;DHT22;16247;50.840;4.382;2023-04-19T15:23:48;18.80;93.10
29207;DHT22;16247;50.840;4.382;2023-04-19T15:26:16;18.90;91.10
29207;DHT22;16247;50.840;4.382;2023-04-19T15:28:56;18.80;93.20
29207;DHT22;16247;50.840;4.382;2023-04-19T15:31:25;18.80;90.90
29207;DHT22;16247;50.840;4.382;2023-04-19T15:33:52;18.80;91.60
29207;DHT22;16247;50.840;4.382;2023-04-19T15:36:18;18.80;92.60
29207;DHT22;16247;50.840;4.382;2023-04-19T15:38:43;18.70;91.30
29207;DHT22;16247;50.840;4.382;2023-04-19T15:41:10;18.80;90.70
29207;DHT22;16247;50.840;4.382;2023-04-19T15:43:35;18.80;89.50
29207;DHT22;16247;50.840;4.382;2023-04-19T15:46:01;19.00;90.00
29207;DHT22;16247;50.840;4.382;2023-04-19T15:48:28;18.80;91.30
29207;DHT22;16247;50.840;4.382;2023-04-19T15:50:54;18.60;85.00
29207;DHT22;16247;50.840;4.382;2023-04-19T15:53:19;18.60;83.80
29207;DHT22;16247;50.840;4.382;2023-04-19T15:55:47;18.40;83.50
29207;DHT22;16247;50.840;4.382;2023-04-19T15:58:14;18.40;83.70
29207;DHT22;16247;50.840;4.382;2023-04-19T16:00:49;18.20;83.50
29207;DHT22;16247;50.840;4.382;2023-04-19T16:03:15;18.30;83.00
29207;DHT22;16247;50.840;4.382;2023-04-19T16:05:41;18.20;82.20
29207;DHT22;16247;50.840;4.382;2023-04-19T16:08:07;18.00;82.70
29207;DHT22;16247;50.840;4.382;2023-04-19T16:10:45;18.40;82.90
29207;DHT22;16247;50.840;4.382;2023-04-19T16:13:11;18.10;81.90
29207;DHT22;16247;50.840;4.382;2023-04-19T16:15:43;18.00;82.30
29207;DHT22;16247;50.840;4.382;2023-04-19T16:18:09;17.80;82.20
29207;DHT22;16247;50.840;4.382;2023-04-19T16:20:37;17.90;81.70
29207;DHT22;16247;50.840;4.382;2023-04-19T16:23:05;17.90;81.10
29207;DHT22;16247;50.840;4.382;2023-04-19T16:25:31;18.00;81.40
29207;DHT22;16247;50.840;4.382;2023-04-19T16:28:03;18.00;81.80
29207;DHT22;16247;50.840;4.382;2023-04-19T16:30:33;18.00;81.10
29207;DHT22;16247;50.840;4.382;2023-04-19T16:33:11;18.00;80.10
29207;DHT22;16247;50.840;4.382;2023-04-19T16:35:44;17.80;80.30
29207;DHT22;16247;50.840;4.382;2023-04-19T16:40:39;17.80;82.30
29207;DHT22;16247;50.840;4.382;2023-04-19T16:43:04;17.80;82.80
29207;DHT22;16247;50.840;4.382;2023-04-19T16:57:27;17.50;82.90
29207;DHT22;16247;50.840;4.382;2023-04-19T17:09:19;17.40;84.70
29207;DHT22;16247;50.840;4.382;2023-04-19T17:12:08;17.20;84.10
29207;DHT22;16247;50.840;4.382;2023-04-19T17:14:41;17.30;83.80
29207;DHT22;16247;50.840;4.382;2023-04-19T17:17:28;17.10;83.30
29207;DHT22;16247;50.840;4.382;2023-04-19T17:19:59;17.00;84.40
29207;DHT22;16247;50.840;4.382;2023-04-19T17:25:22;17.10;83.30
29207;DHT22;16247;50.840;4.382;2023-04-19T17:28:10;16.90;84.50
29207;DHT22;16247;50.840;4.382;2023-04-19T17:30:41;16.90;85.40
29207;DHT22;16247;50.840;4.382;2023-04-19T17:33:30;16.90;86.10
29207;DHT22;16247;50.840;4.382;2023-04-19T17:41:39;16.70;87.20
29207;DHT22;16247;50.840;4.382;2023-04-19T17:45:00;16.80;87.50
29207;DHT22;16247;50.840;4.382;2023-04-19T17:47:27;16.70;87.40
29207;DHT22;16247;50.840;4.382;2023-04-19T17:50:02;16.60;87.40